sensor_id;sensor_type;location;lat;lon;timestamp;pressure;altitude;pressure_sealevel;temperature;humidity
57250;BME280;43102;52.014;-0.680;2022-12-04T00:00:00;100914;;;4.59;81.27
57250;BME280;43102;52.014;-0.680;2022-12-04T00:01:02;100914;;;4.59;81.27
57250;BME280;43102;52.014;-0.680;2022-12-04T00:03:00;100907;;;4.62;81.17
57250;BME280;43102;52.014;-0.680;2022-12-04T00:04:00;100907;;;4.62;81.17
57250;BME280;43102;52.014;-0.680;2022-12-04T00:05:00;100907;;;4.62;81.17
57250;BME280;43102;52.014;-0.680;2022-12-04T00:06:08;100907;;;4.62;81.17
57250;BME280;43102;52.014;-0.680;2022-12-04T00:07:00;100901;;;4.63;81.12
57250;BME280;43102;52.014;-0.680;2022-12-04T00:08:00;100901;;;4.63;81.12
57250;BME280;43102;52.014;-0.680;2022-12-04T00:09:00;100901;;;4.63;81.12
57250;BME280;43102;52.014;-0.680;2022-12-04T00:10:00;100901;;;4.63;81.12
57250;BME280;43102;52.014;-0.680;2022-12-04T00:11:00;100901;;;4.63;81.12
57250;BME280;43102;52.014;-0.680;2022-12-04T00:12:00;100898;;;4.69;81.09
57250;BME280;43102;52.014;-0.680;2022-12-04T00:13:00;100898;;;4.69;81.09
57250;BME280;43102;52.014;-0.680;2022-12-04T00:14:00;100898;;;4.69;81.09
57250;BME280;43102;52.014;-0.680;2022-12-04T00:15:00;100898;;;4.69;81.09
57250;BME280;43102;52.014;-0.680;2022-12-04T00:16:00;100898;;;4.69;81.09
57250;BME280;43102;52.014;-0.680;2022-12-04T00:17:00;100892;;;4.76;80.91
57250;BME280;43102;52.014;-0.680;2022-12-04T00:18:00;100892;;;4.76;80.91
57250;BME280;43102;52.014;-0.680;2022-12-04T00:19:00;100892;;;4.76;80.91
57250;BME280;43102;52.014;-0.680;2022-12-04T00:20:00;100892;;;4.76;80.91
57250;BME280;43102;52.014;-0.680;2022-12-04T00:21:03;100892;;;4.76;80.91
57250;BME280;43102;52.014;-0.680;2022-12-04T00:22:00;100886;;;4.79;80.71
57250;BME280;43102;52.014;-0.680;2022-12-04T00:23:00;100886;;;4.79;80.71
57250;BME280;43102;52.014;-0.680;2022-12-04T00:24:00;100886;;;4.79;80.71
57250;BME280;43102;52.014;-0.680;2022-12-04T00:25:00;100886;;;4.79;80.71
57250;BME280;43102;52.014;-0.680;2022-12-04T00:26:00;100886;;;4.79;80.71
57250;BME280;43102;52.014;-0.680;2022-12-04T00:27:00;100877;;;4.83;80.54
57250;BME280;43102;52.014;-0.680;2022-12-04T00:28:00;100877;;;4.83;80.54
57250;BME280;43102;52.014;-0.680;2022-12-04T00:29:00;100877;;;4.83;80.54
57250;BME280;43102;52.014;-0.680;2022-12-04T00:30:00;100877;;;4.83;80.54
57250;BME280;43102;52.014;-0.680;2022-12-04T00:31:03;100877;;;4.83;80.54
57250;BME280;43102;52.014;-0.680;2022-12-04T00:32:00;100872;;;4.83;80.30
57250;BME280;43102;52.014;-0.680;2022-12-04T00:33:00;100872;;;4.83;80.30
57250;BME280;43102;52.014;-0.680;2022-12-04T00:34:00;100872;;;4.83;80.30
57250;BME280;43102;52.014;-0.680;2022-12-04T00:35:00;100872;;;4.83;80.30
57250;BME280;43102;52.014;-0.680;2022-12-04T00:36:01;100872;;;4.83;80.30
57250;BME280;43102;52.014;-0.680;2022-12-04T00:37:00;100868;;;4.75;79.80
57250;BME280;43102;52.014;-0.680;2022-12-04T00:38:00;100868;;;4.75;79.80
57250;BME280;43102;52.014;-0.680;2022-12-04T00:39:00;100868;;;4.75;79.80
57250;BME280;43102;52.014;-0.680;2022-12-04T00:40:00;100868;;;4.75;79.80
57250;BME280;43102;52.014;-0.680;2022-12-04T00:41:00;100868;;;4.75;79.80
57250;BME280;43102;52.014;-0.680;2022-12-04T00:42:00;100864;;;4.78;78.94
57250;BME280;43102;52.014;-0.680;2022-12-04T00:43:00;100864;;;4.78;78.94
57250;BME280;43102;52.014;-0.680;2022-12-04T00:44:00;100864;;;4.78;78.94
57250;BME280;43102;52.014;-0.680;2022-12-04T00:45:00;100864;;;4.78;78.94
57250;BME280;43102;52.014;-0.680;2022-12-04T00:46:00;100864;;;4.78;78.94
57250;BME280;43102;52.014;-0.680;2022-12-04T00:47:00;100862;;;4.66;78.18
57250;BME280;43102;52.014;-0.680;2022-12-04T00:48:00;100862;;;4.66;78.18
57250;BME280;43102;52.014;-0.680;2022-12-04T00:49:00;100862;;;4.66;78.18
57250;BME280;43102;52.014;-0.680;2022-12-04T00:50:00;100862;;;4.66;78.18
57250;BME280;43102;52.014;-0.680;2022-12-04T00:51:01;100862;;;4.66;78.18
57250;BME280;43102;52.014;-0.680;2022-12-04T00:52:00;100863;;;4.67;78.12
57250;BME280;43102;52.014;-0.680;2022-12-04T00:53:00;100863;;;4.67;78.12
57250;BME280;43102;52.014;-0.680;2022-12-04T00:54:00;100863;;;4.67;78.12
57250;BME280;43102;52.014;-0.680;2022-12-04T00:55:00;100863;;;4.67;78.12
57250;BME280;43102;52.014;-0.680;2022-12-04T00:56:04;100863;;;4.67;78.12
57250;BME280;43102;52.014;-0.680;2022-12-04T00:57:00;100858;;;4.69;78.12
57250;BME280;43102;52.014;-0.680;2022-12-04T00:58:00;100858;;;4.69;78.12
57250;BME280;43102;52.014;-0.680;2022-12-04T00:59:00;100858;;;4.69;78.12
57250;BME280;43102;52.014;-0.680;2022-12-04T01:00:00;100858;;;4.69;78.12
57250;BME280;43102;52.014;-0.680;2022-12-04T01:01:01;100858;;;4.69;78.12
57250;BME280;43102;52.014;-0.680;2022-12-04T01:02:00;100851;;;4.67;78.17
57250;BME280;43102;52.014;-0.680;2022-12-04T01:03:00;100851;;;4.67;78.17
57250;BME280;43102;52.014;-0.680;2022-12-04T01:04:00;100851;;;4.67;78.17
57250;BME280;43102;52.014;-0.680;2022-12-04T01:05:00;100851;;;4.67;78.17
57250;BME280;43102;52.014;-0.680;2022-12-04T01:06:02;100851;;;4.67;78.17
57250;BME280;43102;52.014;-0.680;2022-12-04T01:07:00;100852;;;4.64;78.17
57250;BME280;43102;52.014;-0.680;2022-12-04T01:08:00;100852;;;4.64;78.17
57250;BME280;43102;52.014;-0.680;2022-12-04T01:09:01;100852;;;4.64;78.17
57250;BME280;43102;52.014;-0.680;2022-12-04T01:10:00;100852;;;4.64;78.17
57250;BME280;43102;52.014;-0.680;2022-12-04T01:11:04;100852;;;4.64;78.17
57250;BME280;43102;52.014;-0.680;2022-12-04T01:12:00;100853;;;4.57;78.27
57250;BME280;43102;52.014;-0.680;2022-12-04T01:13:00;100853;;;4.57;78.27
57250;BME280;43102;52.014;-0.680;2022-12-04T01:14:00;100853;;;4.57;78.27
57250;BME280;43102;52.014;-0.680;2022-12-04T01:15:00;100853;;;4.57;78.27
57250;BME280;43102;52.014;-0.680;2022-12-04T01:16:00;100853;;;4.57;78.27
57250;BME280;43102;52.014;-0.680;2022-12-04T01:17:00;100852;;;4.52;78.55
57250;BME280;43102;52.014;-0.680;2022-12-04T01:18:00;100852;;;4.52;78.55
57250;BME280;43102;52.014;-0.680;2022-12-04T01:19:00;100852;;;4.52;78.55
57250;BME280;43102;52.014;-0.680;2022-12-04T01:20:00;100852;;;4.52;78.55
57250;BME280;43102;52.014;-0.680;2022-12-04T01:21:00;100852;;;4.52;78.55
57250;BME280;43102;52.014;-0.680;2022-12-04T01:22:00;100852;;;4.49;78.82
57250;BME280;43102;52.014;-0.680;2022-12-04T01:23:00;100852;;;4.49;78.82
57250;BME280;43102;52.014;-0.680;2022-12-04T01:24:00;100852;;;4.49;78.82
57250;BME280;43102;52.014;-0.680;2022-12-04T01:25:00;100852;;;4.49;78.82
57250;BME280;43102;52.014;-0.680;2022-12-04T01:26:00;100852;;;4.49;78.82
57250;BME280;43102;52.014;-0.680;2022-12-04T01:27:00;100848;;;4.39;79.34
57250;BME280;43102;52.014;-0.680;2022-12-04T01:28:00;100848;;;4.39;79.34
57250;BME280;43102;52.014;-0.680;2022-12-04T01:29:00;100848;;;4.39;79.34
57250;BME280;43102;52.014;-0.680;2022-12-04T01:30:00;100848;;;4.39;79.34
57250;BME280;43102;52.014;-0.680;2022-12-04T01:31:01;100848;;;4.39;79.34
57250;BME280;43102;52.014;-0.680;2022-12-04T01:32:00;100846;;;4.31;79.95
57250;BME280;43102;52.014;-0.680;2022-12-04T01:33:00;100846;;;4.31;79.95
57250;BME280;43102;52.014;-0.680;2022-12-04T01:34:00;100846;;;4.31;79.95
57250;BME280;43102;52.014;-0.680;2022-12-04T01:35:00;100846;;;4.31;79.95
57250;BME280;43102;52.014;-0.680;2022-12-04T01:36:00;100846;;;4.31;79.95
57250;BME280;43102;52.014;-0.680;2022-12-04T01:37:00;100843;;;4.32;80.18
57250;BME280;43102;52.014;-0.680;2022-12-04T01:38:00;100843;;;4.32;80.18
57250;BME280;43102;52.014;-0.680;2022-12-04T01:39:00;100843;;;4.32;80.18
57250;BME280;43102;52.014;-0.680;2022-12-04T01:40:00;100843;;;4.32;80.18
57250;BME280;43102;52.014;-0.680;2022-12-04T01:41:00;100843;;;4.32;80.18
57250;BME280;43102;52.014;-0.680;2022-12-04T01:42:00;100849;;;4.32;80.38
57250;BME280;43102;52.014;-0.680;2022-12-04T01:43:00;100849;;;4.32;80.38
57250;BME280;43102;52.014;-0.680;2022-12-04T01:44:16;100849;;;4.32;80.38
57250;BME280;43102;52.014;-0.680;2022-12-04T01:46:00;100849;;;4.32;80.38
57250;BME280;43102;52.014;-0.680;2022-12-04T01:47:00;100841;;;4.28;80.66
57250;BME280;43102;52.014;-0.680;2022-12-04T01:48:02;100841;;;4.28;80.66
57250;BME280;43102;52.014;-0.680;2022-12-04T01:49:00;100841;;;4.28;80.66
57250;BME280;43102;52.014;-0.680;2022-12-04T01:50:00;100841;;;4.28;80.66
57250;BME280;43102;52.014;-0.680;2022-12-04T01:51:04;100841;;;4.28;80.66
57250;BME280;43102;52.014;-0.680;2022-12-04T01:52:01;100826;;;4.15;80.96
57250;BME280;43102;52.014;-0.680;2022-12-04T01:53:00;100826;;;4.15;80.96
57250;BME280;43102;52.014;-0.680;2022-12-04T01:54:01;100826;;;4.15;80.96
57250;BME280;43102;52.014;-0.680;2022-12-04T01:55:00;100826;;;4.15;80.96
57250;BME280;43102;52.014;-0.680;2022-12-04T01:56:00;100826;;;4.15;80.96
57250;BME280;43102;52.014;-0.680;2022-12-04T01:57:02;100827;;;4.15;80.70
57250;BME280;43102;52.014;-0.680;2022-12-04T01:58:00;100827;;;4.15;80.70
57250;BME280;43102;52.014;-0.680;2022-12-04T01:59:00;100827;;;4.15;80.70
57250;BME280;43102;52.014;-0.680;2022-12-04T02:00:03;100827;;;4.15;80.70
57250;BME280;43102;52.014;-0.680;2022-12-04T02:01:01;100827;;;4.15;80.70
57250;BME280;43102;52.014;-0.680;2022-12-04T02:02:04;100827;;;4.12;80.88
57250;BME280;43102;52.014;-0.680;2022-12-04T02:03:00;100827;;;4.12;80.88
57250;BME280;43102;52.014;-0.680;2022-12-04T02:04:00;100827;;;4.12;80.88
57250;BME280;43102;52.014;-0.680;2022-12-04T02:05:01;100827;;;4.12;80.88
57250;BME280;43102;52.014;-0.680;2022-12-04T02:06:00;100827;;;4.12;80.88
57250;BME280;43102;52.014;-0.680;2022-12-04T02:07:00;100827;;;4.04;81.02
57250;BME280;43102;52.014;-0.680;2022-12-04T02:08:00;100827;;;4.04;81.02
57250;BME280;43102;52.014;-0.680;2022-12-04T02:09:00;100827;;;4.04;81.02
57250;BME280;43102;52.014;-0.680;2022-12-04T02:10:00;100827;;;4.04;81.02
57250;BME280;43102;52.014;-0.680;2022-12-04T02:12:03;100824;;;3.90;81.38
57250;BME280;43102;52.014;-0.680;2022-12-04T02:16:07;100824;;;3.90;81.38
57250;BME280;43102;52.014;-0.680;2022-12-04T02:18:03;100829;;;3.86;81.32
57250;BME280;43102;52.014;-0.680;2022-12-04T02:19:06;100829;;;3.86;81.32
57250;BME280;43102;52.014;-0.680;2022-12-04T02:20:06;100829;;;3.86;81.32
57250;BME280;43102;52.014;-0.680;2022-12-04T02:21:19;100829;;;3.86;81.32
57250;BME280;43102;52.014;-0.680;2022-12-04T02:22:00;100829;;;3.84;81.15
57250;BME280;43102;52.014;-0.680;2022-12-04T02:23:06;100829;;;3.84;81.15
57250;BME280;43102;52.014;-0.680;2022-12-04T02:24:02;100829;;;3.84;81.15
57250;BME280;43102;52.014;-0.680;2022-12-04T02:25:05;100829;;;3.84;81.15
57250;BME280;43102;52.014;-0.680;2022-12-04T02:27:01;100827;;;3.64;81.60
57250;BME280;43102;52.014;-0.680;2022-12-04T02:28:02;100827;;;3.64;81.60
57250;BME280;43102;52.014;-0.680;2022-12-04T02:30:01;100827;;;3.64;81.60
57250;BME280;43102;52.014;-0.680;2022-12-04T02:31:00;100827;;;3.64;81.60
57250;BME280;43102;52.014;-0.680;2022-12-04T02:33:07;100829;;;3.70;81.16
57250;BME280;43102;52.014;-0.680;2022-12-04T02:34:01;100829;;;3.70;81.16
57250;BME280;43102;52.014;-0.680;2022-12-04T02:35:03;100829;;;3.70;81.16
57250;BME280;43102;52.014;-0.680;2022-12-04T02:36:02;100829;;;3.70;81.16
57250;BME280;43102;52.014;-0.680;2022-12-04T02:37:02;100833;;;3.55;81.49
57250;BME280;43102;52.014;-0.680;2022-12-04T02:38:03;100833;;;3.55;81.49
57250;BME280;43102;52.014;-0.680;2022-12-04T02:39:03;100833;;;3.55;81.49
57250;BME280;43102;52.014;-0.680;2022-12-04T02:40:03;100833;;;3.55;81.49
57250;BME280;43102;52.014;-0.680;2022-12-04T02:41:02;100833;;;3.55;81.49
57250;BME280;43102;52.014;-0.680;2022-12-04T02:42:02;100835;;;3.49;81.68
57250;BME280;43102;52.014;-0.680;2022-12-04T02:43:02;100835;;;3.49;81.68
57250;BME280;43102;52.014;-0.680;2022-12-04T02:44:03;100835;;;3.49;81.68
57250;BME280;43102;52.014;-0.680;2022-12-04T02:45:01;100835;;;3.49;81.68
57250;BME280;43102;52.014;-0.680;2022-12-04T02:46:02;100835;;;3.49;81.68
57250;BME280;43102;52.014;-0.680;2022-12-04T02:47:01;100829;;;3.50;81.47
57250;BME280;43102;52.014;-0.680;2022-12-04T02:48:00;100829;;;3.50;81.47
57250;BME280;43102;52.014;-0.680;2022-12-04T02:49:00;100829;;;3.50;81.47
57250;BME280;43102;52.014;-0.680;2022-12-04T02:50:00;100829;;;3.50;81.47
57250;BME280;43102;52.014;-0.680;2022-12-04T02:51:00;100829;;;3.50;81.47
57250;BME280;43102;52.014;-0.680;2022-12-04T02:52:00;100824;;;3.42;81.45
57250;BME280;43102;52.014;-0.680;2022-12-04T02:53:16;100824;;;3.42;81.45
57250;BME280;43102;52.014;-0.680;2022-12-04T02:54:02;100824;;;3.42;81.45
57250;BME280;43102;52.014;-0.680;2022-12-04T02:55:03;100824;;;3.42;81.45
57250;BME280;43102;52.014;-0.680;2022-12-04T02:56:02;100824;;;3.42;81.45
57250;BME280;43102;52.014;-0.680;2022-12-04T02:57:00;100820;;;3.47;81.46
57250;BME280;43102;52.014;-0.680;2022-12-04T02:58:01;100820;;;3.47;81.46
57250;BME280;43102;52.014;-0.680;2022-12-04T02:59:01;100820;;;3.47;81.46
57250;BME280;43102;52.014;-0.680;2022-12-04T03:00:03;100820;;;3.47;81.46
57250;BME280;43102;52.014;-0.680;2022-12-04T03:01:00;100820;;;3.47;81.46
57250;BME280;43102;52.014;-0.680;2022-12-04T03:02:01;100822;;;3.48;81.30
57250;BME280;43102;52.014;-0.680;2022-12-04T03:03:08;100822;;;3.48;81.30
57250;BME280;43102;52.014;-0.680;2022-12-04T03:04:03;100822;;;3.48;81.30
57250;BME280;43102;52.014;-0.680;2022-12-04T03:05:02;100822;;;3.48;81.30
57250;BME280;43102;52.014;-0.680;2022-12-04T03:06:01;100822;;;3.48;81.30
57250;BME280;43102;52.014;-0.680;2022-12-04T03:07:01;100818;;;3.54;81.04
57250;BME280;43102;52.014;-0.680;2022-12-04T03:08:01;100818;;;3.54;81.04
57250;BME280;43102;52.014;-0.680;2022-12-04T03:09:02;100818;;;3.54;81.04
57250;BME280;43102;52.014;-0.680;2022-12-04T03:10:02;100818;;;3.54;81.04
57250;BME280;43102;52.014;-0.680;2022-12-04T03:11:00;100818;;;3.54;81.04
57250;BME280;43102;52.014;-0.680;2022-12-04T03:12:04;100821;;;3.53;80.92
57250;BME280;43102;52.014;-0.680;2022-12-04T03:14:01;100821;;;3.53;80.92
57250;BME280;43102;52.014;-0.680;2022-12-04T03:15:02;100821;;;3.53;80.92
57250;BME280;43102;52.014;-0.680;2022-12-04T03:16:17;100821;;;3.53;80.92
57250;BME280;43102;52.014;-0.680;2022-12-04T03:17:02;100811;;;3.58;80.69
57250;BME280;43102;52.014;-0.680;2022-12-04T03:18:01;100811;;;3.58;80.69
57250;BME280;43102;52.014;-0.680;2022-12-04T03:19:01;100811;;;3.58;80.69
57250;BME280;43102;52.014;-0.680;2022-12-04T03:20:02;100811;;;3.58;80.69
57250;BME280;43102;52.014;-0.680;2022-12-04T03:21:02;100811;;;3.58;80.69
57250;BME280;43102;52.014;-0.680;2022-12-04T03:22:02;100810;;;3.64;80.47
57250;BME280;43102;52.014;-0.680;2022-12-04T03:23:02;100810;;;3.64;80.47
57250;BME280;43102;52.014;-0.680;2022-12-04T03:24:02;100810;;;3.64;80.47
57250;BME280;43102;52.014;-0.680;2022-12-04T03:25:00;100810;;;3.64;80.47
57250;BME280;43102;52.014;-0.680;2022-12-04T03:28:01;100807;;;3.68;80.11
57250;BME280;43102;52.014;-0.680;2022-12-04T03:30:03;100807;;;3.68;80.11
57250;BME280;43102;52.014;-0.680;2022-12-04T03:31:02;100807;;;3.68;80.11
57250;BME280;43102;52.014;-0.680;2022-12-04T03:32:04;100794;;;3.72;79.95
57250;BME280;43102;52.014;-0.680;2022-12-04T03:33:02;100794;;;3.72;79.95
57250;BME280;43102;52.014;-0.680;2022-12-04T03:34:00;100794;;;3.72;79.95
57250;BME280;43102;52.014;-0.680;2022-12-04T03:35:02;100794;;;3.72;79.95
57250;BME280;43102;52.014;-0.680;2022-12-04T03:36:03;100794;;;3.72;79.95
57250;BME280;43102;52.014;-0.680;2022-12-04T03:37:02;100790;;;3.68;79.43
57250;BME280;43102;52.014;-0.680;2022-12-04T03:38:02;100790;;;3.68;79.43
57250;BME280;43102;52.014;-0.680;2022-12-04T03:39:10;100790;;;3.68;79.43
57250;BME280;43102;52.014;-0.680;2022-12-04T03:41:02;100790;;;3.68;79.43
57250;BME280;43102;52.014;-0.680;2022-12-04T03:42:03;100786;;;3.75;79.18
57250;BME280;43102;52.014;-0.680;2022-12-04T03:43:04;100786;;;3.75;79.18
57250;BME280;43102;52.014;-0.680;2022-12-04T03:44:05;100786;;;3.75;79.18
57250;BME280;43102;52.014;-0.680;2022-12-04T03:45:00;100786;;;3.75;79.18
57250;BME280;43102;52.014;-0.680;2022-12-04T03:46:08;100786;;;3.75;79.18
57250;BME280;43102;52.014;-0.680;2022-12-04T03:48:05;100783;;;3.69;79.10
57250;BME280;43102;52.014;-0.680;2022-12-04T03:49:03;100783;;;3.69;79.10
57250;BME280;43102;52.014;-0.680;2022-12-04T03:50:02;100783;;;3.69;79.10
57250;BME280;43102;52.014;-0.680;2022-12-04T03:51:06;100783;;;3.69;79.10
57250;BME280;43102;52.014;-0.680;2022-12-04T03:54:04;100789;;;3.70;79.02
57250;BME280;43102;52.014;-0.680;2022-12-04T03:55:04;100789;;;3.70;79.02
57250;BME280;43102;52.014;-0.680;2022-12-04T03:57:01;100792;;;3.73;78.92
57250;BME280;43102;52.014;-0.680;2022-12-04T03:58:01;100792;;;3.73;78.92
57250;BME280;43102;52.014;-0.680;2022-12-04T03:59:02;100792;;;3.73;78.92
57250;BME280;43102;52.014;-0.680;2022-12-04T04:01:00;100792;;;3.73;78.92
57250;BME280;43102;52.014;-0.680;2022-12-04T04:02:00;100792;;;3.68;78.84
57250;BME280;43102;52.014;-0.680;2022-12-04T04:03:02;100792;;;3.68;78.84
57250;BME280;43102;52.014;-0.680;2022-12-04T04:04:00;100792;;;3.68;78.84
57250;BME280;43102;52.014;-0.680;2022-12-04T04:05:00;100792;;;3.68;78.84
57250;BME280;43102;52.014;-0.680;2022-12-04T04:06:01;100792;;;3.68;78.84
57250;BME280;43102;52.014;-0.680;2022-12-04T04:08:00;100794;;;3.63;78.90
57250;BME280;43102;52.014;-0.680;2022-12-04T04:09:03;100794;;;3.63;78.90
57250;BME280;43102;52.014;-0.680;2022-12-04T04:10:02;100794;;;3.63;78.90
57250;BME280;43102;52.014;-0.680;2022-12-04T04:12:04;100791;;;3.78;78.55
57250;BME280;43102;52.014;-0.680;2022-12-04T04:13:00;100791;;;3.78;78.55
57250;BME280;43102;52.014;-0.680;2022-12-04T04:14:02;100791;;;3.78;78.55
57250;BME280;43102;52.014;-0.680;2022-12-04T04:15:02;100791;;;3.78;78.55
57250;BME280;43102;52.014;-0.680;2022-12-04T04:16:00;100791;;;3.78;78.55
57250;BME280;43102;52.014;-0.680;2022-12-04T04:17:02;100788;;;3.76;78.59
57250;BME280;43102;52.014;-0.680;2022-12-04T04:18:00;100788;;;3.76;78.59
57250;BME280;43102;52.014;-0.680;2022-12-04T04:19:00;100788;;;3.76;78.59
57250;BME280;43102;52.014;-0.680;2022-12-04T04:20:03;100788;;;3.76;78.59
57250;BME280;43102;52.014;-0.680;2022-12-04T04:21:00;100788;;;3.76;78.59
57250;BME280;43102;52.014;-0.680;2022-12-04T04:22:00;100788;;;3.71;78.79
57250;BME280;43102;52.014;-0.680;2022-12-04T04:23:00;100788;;;3.71;78.79
57250;BME280;43102;52.014;-0.680;2022-12-04T04:24:00;100788;;;3.71;78.79
57250;BME280;43102;52.014;-0.680;2022-12-04T04:25:02;100788;;;3.71;78.79
57250;BME280;43102;52.014;-0.680;2022-12-04T04:26:00;100788;;;3.71;78.79
57250;BME280;43102;52.014;-0.680;2022-12-04T04:27:00;100794;;;3.76;78.84
57250;BME280;43102;52.014;-0.680;2022-12-04T04:28:00;100794;;;3.76;78.84
57250;BME280;43102;52.014;-0.680;2022-12-04T04:29:00;100794;;;3.76;78.84
57250;BME280;43102;52.014;-0.680;2022-12-04T04:30:00;100794;;;3.76;78.84
57250;BME280;43102;52.014;-0.680;2022-12-04T04:31:03;100794;;;3.76;78.84
57250;BME280;43102;52.014;-0.680;2022-12-04T04:33:05;100792;;;3.77;78.99
57250;BME280;43102;52.014;-0.680;2022-12-04T04:35:17;100792;;;3.77;78.99
57250;BME280;43102;52.014;-0.680;2022-12-04T04:36:04;100792;;;3.77;78.99
57250;BME280;43102;52.014;-0.680;2022-12-04T04:37:02;100792;;;3.70;79.29
57250;BME280;43102;52.014;-0.680;2022-12-04T04:41:05;100792;;;3.70;79.29
57250;BME280;43102;52.014;-0.680;2022-12-04T04:42:17;100788;;;3.68;79.44
57250;BME280;43102;52.014;-0.680;2022-12-04T04:43:17;100788;;;3.68;79.44
57250;BME280;43102;52.014;-0.680;2022-12-04T04:44:04;100788;;;3.68;79.44
57250;BME280;43102;52.014;-0.680;2022-12-04T04:45:07;100788;;;3.68;79.44
57250;BME280;43102;52.014;-0.680;2022-12-04T04:46:03;100788;;;3.68;79.44
57250;BME280;43102;52.014;-0.680;2022-12-04T04:47:00;100791;;;3.68;79.29
57250;BME280;43102;52.014;-0.680;2022-12-04T04:48:05;100791;;;3.68;79.29
57250;BME280;43102;52.014;-0.680;2022-12-04T04:49:00;100791;;;3.68;79.29
57250;BME280;43102;52.014;-0.680;2022-12-04T04:50:00;100791;;;3.68;79.29
57250;BME280;43102;52.014;-0.680;2022-12-04T04:51:00;100791;;;3.68;79.29
57250;BME280;43102;52.014;-0.680;2022-12-04T04:52:00;100787;;;3.72;79.19
57250;BME280;43102;52.014;-0.680;2022-12-04T04:53:03;100787;;;3.72;79.19
57250;BME280;43102;52.014;-0.680;2022-12-04T04:54:02;100787;;;3.72;79.19
57250;BME280;43102;52.014;-0.680;2022-12-04T04:55:00;100787;;;3.72;79.19
57250;BME280;43102;52.014;-0.680;2022-12-04T04:56:00;100787;;;3.72;79.19
57250;BME280;43102;52.014;-0.680;2022-12-04T04:57:00;100787;;;3.84;78.83
57250;BME280;43102;52.014;-0.680;2022-12-04T04:58:16;100787;;;3.84;78.83
57250;BME280;43102;52.014;-0.680;2022-12-04T04:59:00;100787;;;3.84;78.83
57250;BME280;43102;52.014;-0.680;2022-12-04T05:00:00;100787;;;3.84;78.83
57250;BME280;43102;52.014;-0.680;2022-12-04T05:01:01;100787;;;3.84;78.83
57250;BME280;43102;52.014;-0.680;2022-12-04T05:02:00;100780;;;3.80;78.51
57250;BME280;43102;52.014;-0.680;2022-12-04T05:03:00;100780;;;3.80;78.51
57250;BME280;43102;52.014;-0.680;2022-12-04T05:04:00;100780;;;3.80;78.51
57250;BME280;43102;52.014;-0.680;2022-12-04T05:05:00;100780;;;3.80;78.51
57250;BME280;43102;52.014;-0.680;2022-12-04T05:06:00;100780;;;3.80;78.51
57250;BME280;43102;52.014;-0.680;2022-12-04T05:07:00;100773;;;3.71;78.40
57250;BME280;43102;52.014;-0.680;2022-12-04T05:08:00;100773;;;3.71;78.40
57250;BME280;43102;52.014;-0.680;2022-12-04T05:09:00;100773;;;3.71;78.40
57250;BME280;43102;52.014;-0.680;2022-12-04T05:10:00;100773;;;3.71;78.40
57250;BME280;43102;52.014;-0.680;2022-12-04T05:11:00;100773;;;3.71;78.40
57250;BME280;43102;52.014;-0.680;2022-12-04T05:12:00;100781;;;3.74;78.13
57250;BME280;43102;52.014;-0.680;2022-12-04T05:13:00;100781;;;3.74;78.13
57250;BME280;43102;52.014;-0.680;2022-12-04T05:14:00;100781;;;3.74;78.13
57250;BME280;43102;52.014;-0.680;2022-12-04T05:15:00;100781;;;3.74;78.13
57250;BME280;43102;52.014;-0.680;2022-12-04T05:16:02;100781;;;3.74;78.13
57250;BME280;43102;52.014;-0.680;2022-12-04T05:17:00;100791;;;3.70;77.94
57250;BME280;43102;52.014;-0.680;2022-12-04T05:18:00;100791;;;3.70;77.94
57250;BME280;43102;52.014;-0.680;2022-12-04T05:19:00;100791;;;3.70;77.94
57250;BME280;43102;52.014;-0.680;2022-12-04T05:20:00;100791;;;3.70;77.94
57250;BME280;43102;52.014;-0.680;2022-12-04T05:21:07;100791;;;3.70;77.94
57250;BME280;43102;52.014;-0.680;2022-12-04T05:22:00;100792;;;3.85;77.90
57250;BME280;43102;52.014;-0.680;2022-12-04T05:23:00;100792;;;3.85;77.90
57250;BME280;43102;52.014;-0.680;2022-12-04T05:24:00;100792;;;3.85;77.90
57250;BME280;43102;52.014;-0.680;2022-12-04T05:25:00;100792;;;3.85;77.90
57250;BME280;43102;52.014;-0.680;2022-12-04T05:26:00;100792;;;3.85;77.90
57250;BME280;43102;52.014;-0.680;2022-12-04T05:27:00;100784;;;3.93;77.72
57250;BME280;43102;52.014;-0.680;2022-12-04T05:28:00;100784;;;3.93;77.72
57250;BME280;43102;52.014;-0.680;2022-12-04T05:29:00;100784;;;3.93;77.72
57250;BME280;43102;52.014;-0.680;2022-12-04T05:30:00;100784;;;3.93;77.72
57250;BME280;43102;52.014;-0.680;2022-12-04T05:31:00;100784;;;3.93;77.72
57250;BME280;43102;52.014;-0.680;2022-12-04T05:32:00;100791;;;3.94;77.77
57250;BME280;43102;52.014;-0.680;2022-12-04T05:33:00;100791;;;3.94;77.77
57250;BME280;43102;52.014;-0.680;2022-12-04T05:34:00;100791;;;3.94;77.77
57250;BME280;43102;52.014;-0.680;2022-12-04T05:35:00;100791;;;3.94;77.77
57250;BME280;43102;52.014;-0.680;2022-12-04T05:36:01;100791;;;3.94;77.77
57250;BME280;43102;52.014;-0.680;2022-12-04T05:37:00;100793;;;3.90;77.78
57250;BME280;43102;52.014;-0.680;2022-12-04T05:38:00;100793;;;3.90;77.78
57250;BME280;43102;52.014;-0.680;2022-12-04T05:39:00;100793;;;3.90;77.78
57250;BME280;43102;52.014;-0.680;2022-12-04T05:40:00;100793;;;3.90;77.78
57250;BME280;43102;52.014;-0.680;2022-12-04T05:41:00;100793;;;3.90;77.78
57250;BME280;43102;52.014;-0.680;2022-12-04T05:42:00;100796;;;3.93;77.54
57250;BME280;43102;52.014;-0.680;2022-12-04T05:43:00;100796;;;3.93;77.54
57250;BME280;43102;52.014;-0.680;2022-12-04T05:44:00;100796;;;3.93;77.54
57250;BME280;43102;52.014;-0.680;2022-12-04T05:45:00;100796;;;3.93;77.54
57250;BME280;43102;52.014;-0.680;2022-12-04T05:46:00;100796;;;3.93;77.54
57250;BME280;43102;52.014;-0.680;2022-12-04T05:47:00;100800;;;3.87;77.73
57250;BME280;43102;52.014;-0.680;2022-12-04T05:48:00;100800;;;3.87;77.73
57250;BME280;43102;52.014;-0.680;2022-12-04T05:49:00;100800;;;3.87;77.73
57250;BME280;43102;52.014;-0.680;2022-12-04T05:50:00;100800;;;3.87;77.73
57250;BME280;43102;52.014;-0.680;2022-12-04T05:51:03;100800;;;3.87;77.73
57250;BME280;43102;52.014;-0.680;2022-12-04T05:52:02;100797;;;3.90;77.72
57250;BME280;43102;52.014;-0.680;2022-12-04T05:53:00;100797;;;3.90;77.72